Time;durP1;ratioP1;P1;durP2;ratioP2;P2;SDS_P1;SDS_P2;PMS_P1;PMS_P2;Temp;Humidity;BMP_temperature;BMP_pressure;BME280_temperature;BME280_humidity;BME280_pressure;Samples;Min_cycle;Max_cycle;Signal;HPM_P1;HPM_P2
2022/05/14 00:01:28;;;;;;;6.20;1.05;;;;;;;13.31;100.00;100208.75;7394037;19;20487;-53
2022/05/14 00:03:54;;;;;;;2.97;1.15;;;;;;;13.28;100.00;100206.91;7392080;19;20011;-54
2022/05/14 00:06:22;;;;;;;5.35;0.63;;;;;;;13.35;100.00;100200.91;7391415;19;20022;-54
2022/05/14 00:08:49;;;;;;;7.25;1.02;;;;;;;13.45;100.00;100201.53;7391328;19;20015;-54
2022/05/14 00:14:03;;;;;;;0.70;0.45;;;;;;;13.57;100.00;100200.47;7391330;19;20019;-55
2022/05/14 00:16:34;;;;;;;0.30;0.30;;;;;;;13.56;100.00;100210.09;7387903;19;20523;-55
2022/05/14 00:19:01;;;;;;;2.85;0.90;;;;;;;13.59;100.00;100209.13;7391402;19;20031;-55
2022/05/14 00:21:28;;;;;;;8.07;0.93;;;;;;;13.61;100.00;100209.41;7392407;19;20010;-54
2022/05/14 00:23:55;;;;;;;1.05;0.70;;;;;;;13.62;100.00;100214.50;7389473;19;20038;-54
2022/05/14 00:26:21;;;;;;;5.85;1.45;;;;;;;13.66;100.00;100208.72;7389585;19;20351;-55
2022/05/14 00:28:48;;;;;;;1.73;1.00;;;;;;;13.65;100.00;100213.56;7391095;19;20081;-55
2022/05/14 00:31:14;;;;;;;3.50;1.77;;;;;;;13.60;100.00;100208.63;7389094;19;20424;-55
2022/05/14 00:33:40;;;;;;;1.67;0.75;;;;;;;13.56;100.00;100210.09;7391431;19;20010;-55
2022/05/14 00:36:07;;;;;;;2.53;0.90;;;;;;;13.56;100.00;100205.28;7388904;19;20007;-55
2022/05/14 00:38:33;;;;;;;9.65;1.42;;;;;;;13.55;100.00;100209.34;7390710;19;20023;-55
2022/05/14 00:41:02;;;;;;;0.77;0.32;;;;;;;13.55;100.00;100214.16;7391030;19;20027;-55
2022/05/14 00:43:30;;;;;;;2.22;0.43;;;;;;;13.52;100.00;100210.31;7390020;19;20015;-55
2022/05/14 00:46:08;;;;;;;2.72;0.65;;;;;;;13.49;100.00;100210.53;7388018;19;20014;-55
2022/05/14 00:48:38;;;;;;;2.05;0.80;;;;;;;13.46;100.00;100208.69;7388561;19;20014;-55
2022/05/14 00:51:06;;;;;;;2.35;0.82;;;;;;;13.42;100.00;100206.09;7393784;19;20526;-55
2022/05/14 00:53:38;;;;;;;7.22;0.75;;;;;;;13.43;100.00;100213.22;7389464;19;20031;-55
2022/05/14 00:56:08;;;;;;;3.40;0.52;;;;;;;13.43;100.00;100202.03;7386778;19;20025;-55
2022/05/14 00:58:42;;;;;;;14.30;2.10;;;;;;;13.40;100.00;100214.22;7388537;19;20007;-55
2022/05/14 01:01:09;;;;;;;2.58;0.50;;;;;;;13.44;100.00;100212.00;7386371;19;20886;-55
2022/05/14 01:03:35;;;;;;;1.65;0.82;;;;;;;13.47;100.00;100213.03;7387634;19;20494;-55
2022/05/14 01:06:04;;;;;;;3.35;1.00;;;;;;;13.41;100.00;100209.38;7388250;19;20010;-55
2022/05/14 01:08:33;;;;;;;7.07;1.33;;;;;;;13.36;100.00;100210.81;7387885;19;20021;-55
2022/05/14 01:10:59;;;;;;;0.50;0.40;;;;;;;13.32;100.00;100207.47;7389928;19;20003;-55
2022/05/14 01:13:26;;;;;;;8.07;1.13;;;;;;;13.30;100.00;100209.97;7388206;19;20030;-94
2022/05/14 01:15:56;;;;;;;5.55;0.93;;;;;;;13.29;100.00;100202.84;7390999;19;20014;-95
2022/05/14 01:18:27;;;;;;;5.13;0.90;;;;;;;13.27;100.00;100201.78;7388153;19;20015;-92
2022/05/14 01:21:01;;;;;;;0.65;0.63;;;;;;;13.28;100.00;100201.31;7392430;19;20013;-92
2022/05/14 01:26:35;;;;;;;10.88;1.20;;;;;;;13.23;100.00;100193.59;7387730;19;20382;-93
2022/05/14 01:29:15;;;;;;;0.82;0.55;;;;;;;13.20;100.00;100194.56;7386485;19;20107;-93
2022/05/14 01:31:42;;;;;;;23.42;1.05;;;;;;;13.11;100.00;100197.47;7390278;19;20022;-92
2022/05/14 01:34:13;;;;;;;7.53;1.85;;;;;;;13.14;100.00;100193.72;7392373;19;20011;-92
2022/05/14 01:36:40;;;;;;;2.33;1.13;;;;;;;13.20;100.00;100191.78;7385740;19;20679;-91
2022/05/14 01:39:07;;;;;;;1.63;0.40;;;;;;;13.20;100.00;100191.78;7388141;19;20025;-92
2022/05/14 01:41:34;;;;;;;2.70;0.70;;;;;;;13.14;100.00;100192.94;7400668;19;20502;-90
2022/05/14 01:44:00;;;;;;;3.13;0.45;;;;;;;13.08;100.00;100192.09;7400858;19;20022;-89
2022/05/14 01:46:26;;;;;;;9.55;2.20;;;;;;;12.98;100.00;100194.19;7401939;19;20019;-90
2022/05/14 01:48:53;;;;;;;7.72;1.90;;;;;;;12.92;100.00;100191.31;7402763;19;20010;-89
2022/05/14 01:51:19;;;;;;;1.70;1.08;;;;;;;12.87;100.00;100194.78;7404063;19;20018;-89
2022/05/14 01:53:46;;;;;;;4.43;1.13;;;;;;;12.83;100.00;100196.22;7399023;19;20051;-89
2022/05/14 01:56:12;;;;;;;1.42;0.40;;;;;;;12.78;100.00;100188.50;7400294;19;20316;-89
2022/05/14 01:58:39;;;;;;;3.70;1.45;;;;;;;12.72;100.00;100188.44;7403575;19;20023;-89
2022/05/14 02:01:15;;;;;;;1.25;1.15;;;;;;;12.70;100.00;100185.34;7403558;19;20101;-89
2022/05/14 02:03:45;;;;;;;27.20;1.08;;;;;;;12.71;100.00;100180.53;7401076;19;20022;-89
2022/05/14 02:06:13;;;;;;;2.63;1.17;;;;;;;12.71;100.00;100191.72;7401822;19;20015;-89
2022/05/14 02:08:39;;;;;;;6.53;1.17;;;;;;;12.72;100.00;100187.66;7400906;19;20014;-89
2022/05/14 02:11:08;;;;;;;3.40;1.08;;;;;;;12.69;100.00;100189.38;7399401;19;20382;-89
2022/05/14 02:13:36;;;;;;;1.27;0.90;;;;;;;12.65;100.00;100188.81;7399671;19;20524;-89
2022/05/14 02:16:04;;;;;;;0.95;0.85;;;;;;;12.64;100.00;100189.28;7399145;19;20011;-89
2022/05/14 02:18:31;;;;;;;3.85;1.67;;;;;;;12.61;100.00;100182.66;7401006;19;20010;-89
2022/05/14 02:20:57;;;;;;;1.60;0.40;;;;;;;12.57;100.00;100192.47;7404767;19;20003;-89
2022/05/14 02:23:24;;;;;;;5.78;0.68;;;;;;;12.55;100.00;100194.97;7401486;19;20018;-89
2022/05/14 02:25:50;;;;;;;0.70;0.32;;;;;;;12.49;100.00;100191.31;7401116;19;20029;-89
2022/05/14 02:28:17;;;;;;;7.20;1.67;;;;;;;12.46;100.00;100183.88;7399288;19;20487;-89
2022/05/14 02:30:44;;;;;;;5.10;1.08;;;;;;;12.46;100.00;100198.63;7400774;19;20014;-89
2022/05/14 02:33:12;;;;;;;9.00;1.77;;;;;;;12.50;100.00;100198.44;7400741;19;20034;-89
2022/05/14 02:35:38;;;;;;;1.92;1.15;;;;;;;12.52;100.00;100202.28;7401004;19;20021;-89
2022/05/14 02:38:06;;;;;;;1.17;0.35;;;;;;;12.50;100.00;100204.00;7401566;19;20018;-89
2022/05/14 02:40:32;;;;;;;5.47;1.08;;;;;;;12.49;100.00;100199.69;7400386;19;20021;-90
2022/05/14 02:42:58;;;;;;;1.17;0.55;;;;;;;12.49;100.00;100197.69;7399200;19;20018;-89
2022/05/14 02:45:25;;;;;;;5.95;0.95;;;;;;;12.51;100.00;100205.56;7398897;19;20022;-89
2022/05/14 02:47:52;;;;;;;0.98;0.65;;;;;;;12.48;100.00;100209.31;7400994;19;20038;-89
2022/05/14 02:50:18;;;;;;;0.73;0.57;;;;;;;12.48;100.00;100207.28;7403185;19;20018;-90
2022/05/14 02:52:44;;;;;;;0.47;0.47;;;;;;;12.51;100.00;100211.16;7401631;19;20015;-89
2022/05/14 02:55:11;;;;;;;10.45;1.17;;;;;;;12.47;100.00;100205.78;7399828;19;20006;-90
2022/05/14 02:57:37;;;;;;;0.40;0.40;;;;;;;12.46;100.00;100203.44;7400316;19;20007;-90
2022/05/14 03:00:07;;;;;;;13.10;0.93;;;;;;;12.43;100.00;100201.63;7399820;19;20042;-90
2022/05/14 03:02:33;;;;;;;2.65;0.65;;;;;;;12.44;100.00;100211.53;7402762;19;20074;-90
2022/05/14 03:05:01;;;;;;;1.77;0.98;;;;;;;12.44;100.00;100215.09;7399577;19;20026;-90
2022/05/14 03:07:27;;;;;;;1.85;1.20;;;;;;;12.42;100.00;100208.44;7400071;19;20010;-90
2022/05/14 03:09:53;;;;;;;0.98;0.98;;;;;;;12.40;100.00;100216.53;7403017;19;20365;-90
2022/05/14 03:12:21;;;;;;;6.28;0.85;;;;;;;12.37;100.00;100217.47;7404190;19;20035;-90
2022/05/14 03:14:49;;;;;;;4.03;0.40;;;;;;;12.32;100.00;100209.78;7396478;19;20074;-90
2022/05/14 03:17:16;;;;;;;4.13;2.03;;;;;;;12.28;100.00;100212.75;7396289;19;20036;-89
2022/05/14 03:19:42;;;;;;;0.63;0.57;;;;;;;12.22;100.00;100211.09;7399946;19;20472;-89
2022/05/14 03:22:09;;;;;;;3.63;0.63;;;;;;;12.18;100.00;100212.06;7397427;19;20010;-89
2022/05/14 03:24:38;;;;;;;2.80;1.15;;;;;;;12.18;100.00;100209.28;7396477;19;20011;-88
2022/05/14 03:27:06;;;;;;;9.80;1.42;;;;;;;12.14;100.00;100214.28;7393177;19;20103;-90
2022/05/14 03:29:33;;;;;;;0.93;0.50;;;;;;;12.08;100.00;100218.94;7393116;19;20025;-88
2022/05/14 03:31:59;;;;;;;17.83;2.15;;;;;;;12.05;100.00;100222.72;7400421;19;20047;-89
2022/05/14 03:34:26;;;;;;;1.67;0.52;;;;;;;12.04;100.00;100229.53;7396786;19;20007;-89
2022/05/14 03:36:53;;;;;;;0.68;0.57;;;;;;;12.02;100.00;100220.88;7396842;19;20038;-89
2022/05/14 03:39:20;;;;;;;15.32;1.23;;;;;;;11.96;100.00;100217.19;7396737;19;20007;-89
2022/05/14 03:41:46;;;;;;;6.95;0.95;;;;;;;11.92;100.00;100216.59;7399789;19;20044;-89
2022/05/14 03:44:13;;;;;;;3.33;1.08;;;;;;;11.89;100.00;100223.13;7396681;19;20018;-89
2022/05/14 03:46:39;;;;;;;4.78;1.23;;;;;;;11.89;100.00;100228.72;7398574;19;20028;-89
2022/05/14 03:49:06;;;;;;;2.65;1.30;;;;;;;11.85;100.00;100227.34;7399660;19;20078;-89
2022/05/14 03:51:32;;;;;;;5.45;1.02;;;;;;;11.89;100.00;100220.34;7399854;19;20014;-89
2022/05/14 03:53:59;;;;;;;1.08;1.02;;;;;;;11.91;100.00;100225.47;7397047;19;20019;-90
2022/05/14 03:56:26;;;;;;;1.90;1.58;;;;;;;11.88;100.00;100221.59;7395162;19;20016;-89
2022/05/14 03:58:53;;;;;;;11.98;1.17;;;;;;;11.86;100.00;100229.69;7398028;19;20014;-89
2022/05/14 04:01:19;;;;;;;1.95;1.45;;;;;;;11.83;100.00;100227.81;7399700;19;20018;-88
2022/05/14 04:03:46;;;;;;;2.58;1.10;;;;;;;11.79;100.00;100234.81;7395701;19;20010;-89
2022/05/14 04:06:12;;;;;;;1.52;1.35;;;;;;;11.77;100.00;100228.97;7396199;19;20078;-89
2022/05/14 04:08:39;;;;;;;0.82;0.50;;;;;;;11.77;100.00;100231.75;7397082;19;20010;-89
2022/05/14 04:11:05;;;;;;;3.25;1.05;;;;;;;11.78;100.00;100228.47;7398234;19;20018;-89
2022/05/14 04:13:32;;;;;;;1.67;0.95;;;;;;;11.76;100.00;100230.22;7396190;19;20014;-88
2022/05/14 04:15:58;;;;;;;5.47;1.25;;;;;;;11.73;100.00;100225.56;7394063;19;20086;-89
2022/05/14 04:18:25;;;;;;;0.40;0.30;;;;;;;11.84;100.00;100232.19;7397285;19;20015;-89
2022/05/14 04:20:54;;;;;;;0.30;0.30;;;;;;;11.92;100.00;100236.16;7400776;19;20027;-89
2022/05/14 04:23:21;;;;;;;1.83;0.75;;;;;;;11.94;100.00;100241.25;7396388;19;20018;-89
2022/05/14 04:25:52;;;;;;;4.38;1.00;;;;;;;11.75;100.00;100243.38;7397208;19;20021;-89
2022/05/14 04:28:20;;;;;;;2.63;0.55;;;;;;;11.66;100.00;100251.00;7397362;19;20567;-89
2022/05/14 04:30:48;;;;;;;2.42;0.82;;;;;;;11.59;100.00;100243.75;7397074;19;20014;-89
2022/05/14 04:33:16;;;;;;;13.80;1.52;;;;;;;11.63;100.00;100238.00;7394351;19;20019;-90
2022/05/14 04:35:43;;;;;;;0.80;0.80;;;;;;;11.57;100.00;100246.25;7395226;19;20018;-90
2022/05/14 04:38:10;;;;;;;7.05;0.98;;;;;;;11.61;100.00;100246.09;7396165;19;20908;-89
2022/05/14 04:40:37;;;;;;;4.25;0.77;;;;;;;11.66;100.00;100248.97;7395713;19;20014;-91
2022/05/14 04:43:08;;;;;;;2.72;1.13;;;;;;;11.68;100.00;100248.53;7395619;19;20019;-90
2022/05/14 04:45:37;;;;;;;0.98;0.98;;;;;;;11.74;100.00;100247.41;7397255;19;20540;-91
2022/05/14 04:48:05;;;;;;;5.82;0.98;;;;;;;11.77;100.00;100245.69;7396715;19;20078;-91
2022/05/14 04:50:32;;;;;;;11.32;1.48;;;;;;;11.71;100.00;100248.38;7400236;19;20022;-91
2022/05/14 04:52:59;;;;;;;1.00;1.00;;;;;;;11.77;100.00;100249.25;7400288;19;20014;-90
2022/05/14 04:55:26;;;;;;;0.82;0.52;;;;;;;11.86;100.00;100254.03;7394094;19;20017;-90
2022/05/14 04:57:53;;;;;;;1.70;1.10;;;;;;;11.84;100.00;100259.31;7396347;19;20024;-92
2022/05/14 05:00:19;;;;;;;5.68;1.33;;;;;;;11.86;100.00;100256.81;7397571;19;20014;-92
2022/05/14 05:05:31;;;;;;;2.10;0.70;;;;;;;11.90;100.00;100255.38;7396173;19;20018;-92
2022/05/14 05:07:58;;;;;;;1.92;1.02;;;;;;;11.95;100.00;100257.50;7396990;19;20464;-92
2022/05/14 05:10:27;;;;;;;14.35;0.70;;;;;;;11.97;100.00;100263.41;7395849;19;20021;-92
2022/05/14 05:12:53;;;;;;;13.13;1.85;;;;;;;12.02;100.00;100265.53;7399178;19;20473;-92
2022/05/14 05:15:20;;;;;;;2.67;0.95;;;;;;;12.10;100.00;100275.13;7394663;19;20021;-92
2022/05/14 05:17:46;;;;;;;2.58;0.55;;;;;;;12.09;100.00;100281.16;7394282;19;20798;-92
2022/05/14 05:20:12;;;;;;;1.00;0.60;;;;;;;12.07;100.00;100281.63;7398605;19;20067;-92
2022/05/14 05:22:39;;;;;;;2.25;0.77;;;;;;;12.12;100.00;100275.41;7398660;19;20006;-91
2022/05/14 05:25:06;;;;;;;5.18;1.40;;;;;;;12.14;100.00;100281.28;7397062;19;20011;-91
2022/05/14 05:27:33;;;;;;;2.15;1.30;;;;;;;12.14;100.00;100275.69;7395674;19;20489;-93
2022/05/14 05:30:00;;;;;;;11.90;1.80;;;;;;;12.10;100.00;100272.31;7392902;19;20014;-93
2022/05/14 05:32:26;;;;;;;7.68;0.77;;;;;;;12.11;100.00;100281.44;7398369;19;20022;-92
2022/05/14 05:34:52;;;;;;;1.75;0.98;;;;;;;12.21;100.00;100282.94;7394644;19;20018;-94
2022/05/14 05:37:18;;;;;;;5.65;1.55;;;;;;;12.25;100.00;100277.16;7394169;19;20011;-91
2022/05/14 05:39:44;;;;;;;0.95;0.52;;;;;;;12.28;100.00;100281.81;7393971;19;20007;-92
2022/05/14 05:42:10;;;;;;;6.80;1.77;;;;;;;12.29;100.00;100286.13;7396972;19;20025;-92
2022/05/14 05:44:37;;;;;;;4.68;1.13;;;;;;;12.38;100.00;100280.47;7392783;19;20018;-90
2022/05/14 05:47:08;;;;;;;1.75;1.13;;;;;;;12.52;100.00;100293.69;7393470;19;20029;-88
2022/05/14 05:49:37;;;;;;;0.40;0.30;;;;;;;12.68;100.00;100296.06;7395395;19;20044;-86
2022/05/14 05:52:04;;;;;;;4.03;1.58;;;;;;;12.75;100.00;100293.69;7398019;19;20727;-89
2022/05/14 05:57:14;;;;;;;2.15;0.65;;;;;;;12.81;100.00;100291.75;7394534;19;20014;-88
2022/05/14 05:59:41;;;;;;;1.00;0.30;;;;;;;12.89;100.00;100292.91;7394202;19;20014;-88
2022/05/14 06:02:08;;;;;;;2.30;1.00;;;;;;;12.98;100.00;100297.63;7398024;19;20018;-88
2022/05/14 06:04:35;;;;;;;1.88;0.70;;;;;;;13.05;100.00;100305.69;7391724;19;20018;-88
2022/05/14 06:07:02;;;;;;;11.60;1.05;;;;;;;13.12;100.00;100296.91;7392531;19;20011;-88
2022/05/14 06:09:30;;;;;;;1.30;0.70;;;;;;;13.20;100.00;100295.25;7394824;19;20017;-89
2022/05/14 06:11:58;;;;;;;3.65;0.95;;;;;;;13.23;100.00;100296.31;7395408;19;20099;-88
2022/05/14 06:14:25;;;;;;;7.78;1.83;;;;;;;13.39;100.00;100301.41;7391957;19;20056;-88
2022/05/14 06:16:52;;;;;;;1.80;0.55;;;;;;;13.41;100.00;100296.88;7392095;19;20524;-88
2022/05/14 06:19:18;;;;;;;25.23;1.98;;;;;;;13.51;100.00;100305.94;7393389;19;20082;-88
2022/05/14 06:21:45;;;;;;;1.70;0.70;;;;;;;13.53;100.00;100307.00;7389872;19;20022;-88
2022/05/14 06:24:11;;;;;;;6.30;1.33;;;;;;;13.46;100.00;100313.00;7389271;19;20013;-88
2022/05/14 06:26:37;;;;;;;1.88;0.93;;;;;;;13.44;100.00;100306.34;7392154;19;20018;-90
2022/05/14 06:29:05;;;;;;;1.58;0.38;;;;;;;13.40;100.00;100314.94;7397074;19;20333;-88
2022/05/14 06:31:32;;;;;;;0.95;0.85;;;;;;;13.40;100.00;100314.94;7403724;19;20015;-88
2022/05/14 06:33:59;;;;;;;2.13;1.45;;;;;;;13.51;100.00;100314.34;7401490;19;20474;-87
2022/05/14 06:36:25;;;;;;;3.72;1.38;;;;;;;13.45;100.00;100319.06;7398991;19;20516;-87
2022/05/14 06:38:52;;;;;;;5.10;1.90;;;;;;;13.48;100.00;100321.66;7399036;19;20017;-88
2022/05/14 06:41:18;;;;;;;2.88;1.13;;;;;;;13.51;100.00;100326.28;7400965;19;20022;-88
2022/05/14 06:43:44;;;;;;;2.17;0.50;;;;;;;13.70;100.00;100329.66;7397310;19;20498;-86
2022/05/14 06:46:11;;;;;;;9.32;1.38;;;;;;;14.00;100.00;100333.13;7399644;19;20027;-88
2022/05/14 06:48:37;;;;;;;1.15;0.93;;;;;;;14.17;100.00;100326.50;7400789;19;20017;-87
2022/05/14 06:51:16;;;;;;;3.28;1.58;;;;;;;14.33;100.00;100316.81;7403671;19;20014;-88
2022/05/14 06:53:42;;;;;;;0.52;0.32;;;;;;;14.45;100.00;100315.69;7398655;19;20589;-87
2022/05/14 06:56:12;;;;;;;4.30;1.77;;;;;;;14.52;100.00;100306.88;7397992;19;20120;-87
2022/05/14 06:58:40;;;;;;;3.03;1.00;;;;;;;14.58;100.00;100315.31;7400726;19;20093;-88
2022/05/14 07:01:08;;;;;;;6.53;1.73;;;;;;;14.61;100.00;100317.16;7401343;19;20369;-87
2022/05/14 07:06:40;;;;;;;2.35;1.25;;;;;;;14.74;100.00;100317.56;7399702;19;20021;-87
2022/05/14 07:09:19;;;;;;;5.20;1.20;;;;;;;14.83;100.00;100312.59;7399985;19;20019;-87
2022/05/14 07:11:49;;;;;;;0.98;0.98;;;;;;;14.79;100.00;100309.19;7400897;19;20014;-87
2022/05/14 07:14:19;;;;;;;7.93;1.55;;;;;;;15.03;100.00;100315.31;7397821;19;20011;-87
2022/05/14 07:16:47;;;;;;;0.60;0.47;;;;;;;14.88;100.00;100314.66;7397204;19;20147;-88
2022/05/14 07:19:14;;;;;;;6.57;1.33;;;;;;;14.86;100.00;100314.38;7399390;19;20407;-87
2022/05/14 07:21:42;;;;;;;2.10;1.13;;;;;;;14.91;100.00;100310.09;7400052;19;20333;-87
2022/05/14 07:24:12;;;;;;;17.80;1.67;;;;;;;15.17;100.00;100324.91;7396404;19;20021;-87
2022/05/14 07:26:39;;;;;;;1.92;0.93;;;;;;;15.34;100.00;100314.59;7397642;19;20018;-88
2022/05/14 07:29:08;;;;;;;6.95;1.15;;;;;;;15.53;100.00;100317.81;7396214;19;20019;-88
2022/05/14 07:31:36;;;;;;;1.92;0.60;;;;;;;15.62;100.00;100320.47;7399408;19;20126;-87
2022/05/14 07:34:03;;;;;;;2.45;1.33;;;;;;;15.46;100.00;100315.50;7394842;19;20038;-87
2022/05/14 07:36:32;;;;;;;0.95;0.80;;;;;;;15.43;100.00;100317.25;7394444;19;20023;-87
2022/05/14 07:39:01;;;;;;;8.75;0.95;;;;;;;15.67;100.00;100316.94;7391188;19;20011;-85
2022/05/14 07:41:28;;;;;;;4.43;1.10;;;;;;;15.97;100.00;100320.97;7397770;19;20248;-88
2022/05/14 07:43:57;;;;;;;4.47;1.75;;;;;;;15.99;100.00;100329.66;7396719;19;20343;-89
2022/05/14 07:46:29;;;;;;;6.45;1.27;;;;;;;16.12;100.00;100324.38;7397297;19;20022;-88
2022/05/14 07:48:58;;;;;;;8.10;1.65;;;;;;;16.21;100.00;100329.00;7397405;19;20015;-87
2022/05/14 07:51:25;;;;;;;4.82;1.10;;;;;;;16.24;100.00;100331.56;7398115;19;20038;-89
2022/05/14 07:53:53;;;;;;;2.55;1.15;;;;;;;16.30;100.00;100326.00;7396133;19;20086;-89
2022/05/14 07:56:19;;;;;;;1.88;0.88;;;;;;;16.41;100.00;100317.63;7394515;19;20021;-87
2022/05/14 07:58:47;;;;;;;5.20;1.52;;;;;;;16.64;100.00;100322.84;7395699;19;20025;-89
2022/05/14 08:01:14;;;;;;;1.40;0.73;;;;;;;16.95;100.00;100329.59;7398181;19;20018;-88
2022/05/14 08:03:41;;;;;;;7.35;1.77;;;;;;;17.11;100.00;100323.22;7396897;19;20021;-88
2022/05/14 08:06:09;;;;;;;1.30;0.80;;;;;;;17.34;100.00;100327.63;7396185;19;20011;-88
2022/05/14 08:08:36;;;;;;;12.38;1.92;;;;;;;17.57;100.00;100325.59;7395787;19;20033;-88
2022/05/14 08:11:02;;;;;;;12.32;2.28;;;;;;;17.83;100.00;100324.03;7396833;19;20019;-89
2022/05/14 08:13:29;;;;;;;1.75;0.57;;;;;;;17.96;100.00;100329.91;7395055;19;20022;-86
2022/05/14 08:15:55;;;;;;;0.95;0.73;;;;;;;18.01;100.00;100329.16;7395144;19;20033;-89
2022/05/14 08:18:21;;;;;;;7.85;1.88;;;;;;;18.04;100.00;100330.91;7400029;19;20511;-89
2022/05/14 08:20:50;;;;;;;3.58;1.33;;;;;;;18.04;100.00;100328.09;7400916;19;20015;-89
2022/05/14 08:26:03;;;;;;;2.92;1.13;;;;;;;17.68;100.00;100346.06;7397031;19;20037;-89
2022/05/14 08:28:30;;;;;;;0.60;0.52;;;;;;;17.85;100.00;100344.00;7395976;19;20355;-90
2022/05/14 08:30:56;;;;;;;10.70;1.67;;;;;;;18.04;100.00;100350.66;7398128;19;20015;-89
2022/05/14 08:33:23;;;;;;;3.88;0.73;;;;;;;18.37;100.00;100343.38;7395305;19;20022;-88
2022/05/14 08:35:49;;;;;;;4.38;1.08;;;;;;;18.77;100.00;100342.75;7396005;19;20026;-90
2022/05/14 08:38:17;;;;;;;4.15;0.73;;;;;;;19.09;100.00;100341.03;7396728;19;20074;-95
2022/05/14 08:41:00;;;;;;;3.30;0.70;;;;;;;19.39;100.00;100344.69;7398455;19;20019;-95
2022/05/14 08:43:41;;;;;;;10.80;1.15;;;;;;;19.67;100.00;100348.06;7397758;19;20404;-95
2022/05/14 08:46:10;;;;;;;11.77;1.00;;;;;;;19.76;100.00;100351.84;7397283;19;20022;-95
2022/05/14 08:48:39;;;;;;;3.47;0.98;;;;;;;19.70;100.00;100351.91;7398132;19;20011;-95
2022/05/14 08:51:18;;;;;;;2.85;1.00;;;;;;;19.68;100.00;100352.41;7397776;19;20034;-88
2022/05/14 08:53:47;;;;;;;2.20;0.95;;;;;;;19.59;100.00;100349.19;7394594;19;20011;-94
2022/05/14 08:56:20;;;;;;;9.77;1.50;;;;;;;19.65;100.00;100347.84;7396765;19;20022;-92
2022/05/14 09:01:30;;;;;;;0.98;0.50;;;;;;;19.66;100.00;100342.97;7392243;19;20026;-51
2022/05/14 09:03:56;;;;;;;2.90;0.60;;;;;;;19.70;100.00;100346.25;7393347;19;20006;-51
2022/05/14 09:06:22;;;;;;;10.43;1.67;;;;;;;19.58;100.00;100356.09;7393629;19;20021;-51
2022/05/14 09:08:52;;;;;;;7.97;0.85;;;;;;;19.53;100.00;100356.94;7388012;19;20014;-51
2022/05/14 09:11:25;;;;;;;5.78;1.15;;;;;;;19.57;100.00;100348.94;7388884;19;20082;-51
2022/05/14 09:14:00;;;;;;;15.18;1.35;;;;;;;19.79;100.00;100356.47;7388213;19;20011;-52
2022/05/14 09:16:30;;;;;;;0.95;0.45;;;;;;;20.07;100.00;100354.91;7387620;19;20011;-52
2022/05/14 09:18:57;;;;;;;4.97;0.77;;;;;;;20.16;100.00;100346.06;7390206;19;20014;-51
2022/05/14 09:21:31;;;;;;;8.10;0.90;;;;;;;20.39;100.00;100353.06;7391173;19;20034;-51
2022/05/14 09:24:13;;;;;;;6.97;0.75;;;;;;;20.50;100.00;100351.38;7390307;19;20455;-51
2022/05/14 09:26:42;;;;;;;8.68;1.15;;;;;;;20.61;100.00;100346.38;7388347;19;20011;-52
2022/05/14 09:29:27;;;;;;;8.20;0.90;;;;;;;20.84;100.00;100341.94;7387893;19;20018;-51
2022/05/14 09:32:00;;;;;;;4.30;0.98;;;;;;;21.12;100.00;100339.50;7392039;19;20848;-52
2022/05/14 09:34:29;;;;;;;5.68;1.00;;;;;;;21.22;100.00;100341.97;7388505;19;20010;-51
2022/05/14 09:37:11;;;;;;;1.95;0.70;;;;;;;21.20;100.00;100341.75;7387017;19;20018;-52
2022/05/14 09:39:39;;;;;;;2.13;0.45;;;;;;;21.27;100.00;100343.97;7389897;19;20018;-51
2022/05/14 09:42:20;;;;;;;9.10;1.50;;;;;;;21.61;100.00;100339.28;7392555;19;20015;-51
2022/05/14 09:44:50;;;;;;;5.90;1.20;;;;;;;21.82;100.00;100334.53;7389697;19;20474;-51
2022/05/14 09:47:31;;;;;;;2.70;0.47;;;;;;;21.99;100.00;100340.69;7387649;19;20108;-51
2022/05/14 09:50:00;;;;;;;7.22;1.42;;;;;;;22.06;100.00;100323.03;7391335;19;20105;-52
2022/05/14 09:52:30;;;;;;;2.25;0.57;;;;;;;22.22;100.00;100321.94;7392635;19;20022;-51
2022/05/14 09:54:57;;;;;;;14.70;1.33;;;;;;;22.26;100.00;100330.91;7388591;19;20013;-52
2022/05/14 09:57:32;;;;;;;12.32;1.58;;;;;;;22.31;100.00;100330.03;7388704;19;20006;-51
2022/05/14 10:00:19;;;;;;;4.97;0.70;;;;;;;22.13;100.00;100333.75;7388380;19;20411;-51
2022/05/14 10:02:57;;;;;;;6.65;1.23;;;;;;;22.17;100.00;100322.06;7395770;19;20030;-51
2022/05/14 10:05:40;;;;;;;2.53;0.50;;;;;;;21.97;100.00;100331.97;7395345;19;20013;-51
2022/05/14 10:08:15;;;;;;;2.67;0.50;;;;;;;21.91;100.00;100324.88;7396290;19;20010;-51
2022/05/14 10:11:07;;;;;;;8.48;0.82;;;;;;;22.00;100.00;100328.06;7399470;19;20038;-51
2022/05/14 10:13:45;;;;;;;1.70;1.08;;;;;;;22.12;100.00;100317.25;7395799;19;20011;-51
2022/05/14 10:16:27;;;;;;;3.88;0.65;;;;;;;22.12;100.00;100315.19;7394365;19;20006;-51
2022/05/14 10:19:26;;;;;;;3.13;0.75;;;;;;;21.97;100.00;100314.19;7396330;19;20011;-51
2022/05/14 10:22:01;;;;;;;1.58;0.50;;;;;;;22.09;100.00;100321.19;7397456;19;20017;-51
2022/05/14 10:27:37;;;;;;;5.10;0.55;;;;;;;22.16;100.00;100321.28;7395531;19;20006;-51
2022/05/14 10:30:07;;;;;;;2.83;0.52;;;;;;;22.12;100.00;100320.84;7395806;19;20011;-51
2022/05/14 10:32:34;;;;;;;;;;;;;;;22.24;100.00;100327.09;7399839;19;20013;-51
2022/05/14 10:35:08;;;;;;;2.38;0.77;;;;;;;22.26;100.00;100324.47;7395772;19;19918;-51
2022/05/14 10:37:43;;;;;;;1.38;0.43;;;;;;;22.41;100.00;100325.47;7394685;19;20375;-51
2022/05/14 10:40:26;;;;;;;2.45;0.40;;;;;;;22.54;100.00;100322.59;7394146;19;20025;-51
2022/05/14 10:42:59;;;;;;;5.40;0.82;;;;;;;22.63;100.00;100314.97;7399300;19;20098;-51
2022/05/14 10:45:34;;;;;;;1.60;0.30;;;;;;;22.60;100.00;100326.13;7394131;19;20011;-51
2022/05/14 10:48:00;;;;;;;6.55;0.63;;;;;;;22.68;100.00;100320.53;7394158;19;20010;-51
2022/05/14 10:50:30;;;;;;;3.97;0.85;;;;;;;22.63;100.00;100318.59;7397531;19;20010;-51
2022/05/14 10:52:58;;;;;;;2.10;0.50;;;;;;;22.52;100.00;100311.00;7399043;19;20017;-52
2022/05/14 10:55:42;;;;;;;6.13;0.60;;;;;;;22.48;100.00;100319.09;7393431;19;20037;-51
2022/05/14 10:58:08;;;;;;;7.43;0.65;;;;;;;22.47;100.00;100317.59;7393353;19;20074;-51
2022/05/14 11:00:43;;;;;;;8.30;0.40;;;;;;;22.55;100.00;100318.44;7392891;19;20014;-51
2022/05/14 11:03:26;;;;;;;6.45;1.08;;;;;;;22.67;100.00;100316.19;7393385;19;20015;-51
2022/05/14 11:06:02;;;;;;;1.90;0.55;;;;;;;22.63;100.00;100313.66;7394321;19;20030;-51
2022/05/14 11:08:28;;;;;;;3.67;0.50;;;;;;;22.61;100.00;100304.16;7393048;19;20473;-51
2022/05/14 11:11:28;;;;;;;18.25;1.33;;;;;;;22.74;100.00;100311.91;7393211;19;20007;-51
2022/05/14 11:13:59;;;;;;;2.35;0.30;;;;;;;22.81;100.00;100305.53;7390401;19;20038;-51
2022/05/14 11:16:55;;;;;;;7.38;0.63;;;;;;;22.80;99.37;100304.03;7391159;19;20021;-52
2022/05/14 11:19:27;;;;;;;4.50;1.35;;;;;;;22.85;98.88;100306.72;7393366;19;20017;-52
2022/05/14 11:21:55;;;;;;;4.90;0.80;;;;;;;22.90;99.11;100296.56;7395294;19;20078;-52
2022/05/14 11:24:34;;;;;;;5.30;0.40;;;;;;;23.02;100.00;100303.53;7393857;19;20018;-51
2022/05/14 11:27:00;;;;;;;1.42;0.17;;;;;;;23.24;99.58;100298.06;7393958;19;20066;-52
2022/05/14 11:29:28;;;;;;;7.60;0.47;;;;;;;23.30;98.12;100306.47;7394501;19;20006;-51
2022/05/14 11:32:05;;;;;;;2.95;0.40;;;;;;;23.37;97.05;100300.13;7395368;19;20046;-52
2022/05/14 11:34:31;;;;;;;4.30;0.88;;;;;;;23.49;100.00;100298.53;7395683;19;20120;-52
2022/05/14 11:37:01;;;;;;;6.72;1.02;;;;;;;23.49;97.24;100307.06;7390309;19;20404;-52
2022/05/14 11:39:36;;;;;;;3.25;0.50;;;;;;;23.40;95.75;100299.03;7393479;19;20010;-52
2022/05/14 11:42:26;;;;;;;7.43;0.57;;;;;;;23.54;98.69;100303.31;7396122;19;20010;-52
2022/05/14 11:45:05;;;;;;;4.00;0.93;;;;;;;23.66;95.72;100301.72;7392610;19;20010;-52
2022/05/14 11:47:31;;;;;;;7.22;0.60;;;;;;;23.81;98.19;100299.00;7393075;19;20010;-52
2022/05/14 11:50:01;;;;;;;1.30;0.43;;;;;;;23.82;94.52;100294.06;7391500;19;20565;-52